Dades meteomassalio
Diari Summary for Octubre 28, 2017 Units:  English    Metric   Both
« Previous Day
Next Day »
Diari Semanal Mensual Anual Personalitzat
  Maxima: Minima: Mijana:
Temperatura: TemperatureC °F 10.0 °F 15.9 °F
Rosada: DewpointC °F 4.2 °F 8.6 °F
Humitat: Humidity % 46 % 63 %
Velocitat del vent: WindSpeedKMH mph 0.0 mph 18.8 mph
Racha vent: WindSpeedGustKMH mph - -
Vent:- - SSW
Pressio: PressurehPa in 1024.9 in -
Pluja: 0.0 in    
Historical Graphs
 
 
Tabular Data for Octubre 28, 2017
Time Temperature Dew Point Pressure Wind Wind Speed Wind Gust Humidity Rainfall Rate (Hourly) solar Conditions
TemperatureC °F DewpointC °F PressurehPa in Calm     Humidity % HourlyPrecipMM in SolarRadiationWatts/m^2 W/m2 Conditions
00:04 16.1 °F 9.8 °F 1029.0 in South 25.9 mph 25.9 mph 66 % 0.0 in 0.0 W/m2 CLR
00:09 15.6 °F 9.2 °F 1029.0 in SSW 18.5 mph 18.5 mph 66 % 0.0 in 0.0 W/m2 CLR
00:14 15.6 °F 9.2 °F 1029.0 in SSW 22.2 mph 22.2 mph 66 % 0.0 in 0.0 W/m2 CLR
00:19 15.6 °F 9.2 °F 1029.0 in SSW 20.4 mph 20.4 mph 66 % 0.0 in 0.0 W/m2 CLR
00:24 15.6 °F 9.0 °F 1029.0 in South 17.7 mph 17.7 mph 65 % 0.0 in 0.0 W/m2 CLR
00:29 15.6 °F 9.2 °F 1028.7 in South 19.3 mph 19.3 mph 66 % 0.0 in 0.0 W/m2 CLR
00:34 15.6 °F 9.2 °F 1028.7 in SSE 24.1 mph 24.1 mph 66 % 0.0 in 0.0 W/m2 CLR
00:39 15.6 °F 9.2 °F 1028.7 in South 22.2 mph 22.2 mph 66 % 0.0 in 0.0 W/m2 CLR
00:44 15.0 °F 8.7 °F 1028.7 in South 24.1 mph 24.1 mph 66 % 0.0 in 0.0 W/m2 CLR
00:49 15.0 °F 8.7 °F 1028.7 in South 25.9 mph 25.9 mph 66 % 0.0 in 0.0 W/m2 CLR
00:54 15.6 °F 9.2 °F 1028.7 in SSW 22.2 mph 22.2 mph 66 % 0.0 in 0.0 W/m2 CLR
00:59 15.6 °F 9.4 °F 1028.7 in SSW 24.1 mph 24.1 mph 67 % 0.0 in 0.0 W/m2 CLR
01:04 15.6 °F 9.4 °F 1028.7 in SSW 22.2 mph 22.2 mph 67 % 0.0 in 0.0 W/m2 CLR
01:09 15.0 °F 8.9 °F 1028.7 in SSW 20.9 mph 20.9 mph 67 % 0.0 in 0.0 W/m2 CLR
01:14 15.6 °F 9.4 °F 1028.7 in South 18.5 mph 18.5 mph 67 % 0.0 in 0.0 W/m2 CLR
01:19 15.6 °F 9.7 °F 1028.7 in SSW 18.5 mph 18.5 mph 68 % 0.0 in 0.0 W/m2 CLR
01:24 15.6 °F 9.7 °F 1028.7 in SSW 22.2 mph 22.2 mph 68 % 0.0 in 0.0 W/m2 CLR
01:29 15.6 °F 9.7 °F 1028.7 in SSE 18.5 mph 18.5 mph 68 % 0.0 in 0.0 W/m2 CLR
01:34 15.0 °F 9.1 °F 1028.7 in SSW 24.1 mph 24.1 mph 68 % 0.0 in 0.0 W/m2 CLR
01:39 15.6 °F 9.7 °F 1028.7 in South 22.5 mph 22.5 mph 68 % 0.0 in 0.0 W/m2 CLR
01:44 15.6 °F 9.7 °F 1028.7 in South 22.2 mph 22.2 mph 68 % 0.0 in 0.0 W/m2 CLR
01:49 15.6 °F 9.9 °F 1028.7 in South 24.1 mph 24.1 mph 69 % 0.0 in 0.0 W/m2 CLR
01:54 15.6 °F 9.7 °F 1028.7 in SSW 27.8 mph 27.8 mph 68 % 0.0 in 0.0 W/m2 CLR
01:59 15.6 °F 9.9 °F 1028.7 in South 22.5 mph 22.5 mph 69 % 0.0 in 0.0 W/m2 CLR
02:04 15.0 °F 9.1 °F 1028.7 in SSW 20.4 mph 20.4 mph 68 % 0.0 in 0.0 W/m2 CLR
02:09 15.6 °F 9.7 °F 1028.7 in SSW 24.1 mph 24.1 mph 68 % 0.0 in 0.0 W/m2 CLR
02:14 15.6 °F 9.7 °F 1028.7 in South 25.9 mph 25.9 mph 68 % 0.0 in 0.0 W/m2 CLR
02:19 15.6 °F 9.7 °F 1028.3 in SSW 24.1 mph 24.1 mph 68 % 0.0 in 0.0 W/m2 CLR
02:24 15.6 °F 9.7 °F 1028.7 in South 18.5 mph 18.5 mph 68 % 0.0 in 0.0 W/m2 CLR
02:29 15.0 °F 9.1 °F 1028.7 in South 22.2 mph 22.2 mph 68 % 0.0 in 0.0 W/m2 CLR
02:34 15.0 °F 9.1 °F 1028.7 in South 18.5 mph 18.5 mph 68 % 0.0 in 0.0 W/m2 CLR
02:39 15.0 °F 9.3 °F 1028.3 in South 27.8 mph 27.8 mph 69 % 0.0 in 0.0 W/m2 CLR
02:44 15.0 °F 9.3 °F 1028.3 in South 22.2 mph 22.2 mph 69 % 0.0 in 0.0 W/m2 CLR
02:49 15.0 °F 9.3 °F 1028.3 in SSW 22.2 mph 22.2 mph 69 % 0.0 in 0.0 W/m2 CLR
02:54 15.0 °F 9.3 °F 1028.3 in SSE 24.1 mph 24.1 mph 69 % 0.0 in 0.0 W/m2 CLR
02:59 15.0 °F 9.3 °F 1028.3 in SSW 22.2 mph 22.2 mph 69 % 0.0 in 0.0 W/m2 CLR
03:04 15.0 °F 9.6 °F 1028.3 in SSW 27.8 mph 27.8 mph 70 % 0.0 in 0.0 W/m2 CLR
03:09 15.0 °F 9.6 °F 1028.3 in SW 30.6 mph 30.6 mph 70 % 0.0 in 0.0 W/m2 CLR
03:14 15.0 °F 9.6 °F 1028.3 in SW 27.8 mph 27.8 mph 70 % 0.0 in 0.0 W/m2 CLR
03:19 15.0 °F 9.6 °F 1028.3 in SSW 22.2 mph 22.2 mph 70 % 0.0 in 0.0 W/m2 CLR
03:24 15.0 °F 9.6 °F 1028.0 in SSW 18.5 mph 18.5 mph 70 % 0.0 in 0.0 W/m2 CLR
03:29 15.0 °F 9.8 °F 1028.0 in SSW 18.5 mph 18.5 mph 71 % 0.0 in 0.0 W/m2 CLR
03:34 15.0 °F 9.8 °F 1028.0 in SSW 20.4 mph 20.4 mph 71 % 0.0 in 0.0 W/m2 CLR
03:39 15.0 °F 9.8 °F 1028.0 in SW 27.8 mph 27.8 mph 71 % 0.0 in 0.0 W/m2 CLR
03:45 15.0 °F 9.8 °F 1028.0 in SSW 24.1 mph 24.1 mph 71 % 0.0 in 0.0 W/m2 CLR
03:50 15.0 °F 10.0 °F 1028.0 in SSW 22.2 mph 22.2 mph 72 % 0.0 in 0.0 W/m2 CLR
03:55 15.0 °F 9.8 °F 1028.0 in SSW 18.5 mph 18.5 mph 71 % 0.0 in 0.0 W/m2 CLR
04:00 15.0 °F 10.0 °F 1028.3 in SSW 18.5 mph 18.5 mph 72 % 0.0 in 0.0 W/m2 CLR
04:05 15.0 °F 10.0 °F 1028.0 in SSW 18.5 mph 18.5 mph 72 % 0.0 in 0.0 W/m2 CLR
04:10 15.0 °F 10.0 °F 1028.0 in SSW 22.5 mph 22.5 mph 72 % 0.0 in 0.0 W/m2 CLR
04:15 15.0 °F 10.0 °F 1028.3 in SSW 18.5 mph 18.5 mph 72 % 0.0 in 0.0 W/m2 CLR
04:20 15.0 °F 10.0 °F 1028.0 in WSW 19.3 mph 19.3 mph 72 % 0.0 in 0.0 W/m2 CLR
04:25 14.4 °F 9.4 °F 1028.0 in SSW 18.5 mph 18.5 mph 72 % 0.0 in 0.0 W/m2 CLR
04:30 14.4 °F 9.4 °F 1028.0 in SSW 22.2 mph 22.2 mph 72 % 0.0 in 0.0 W/m2 CLR
04:35 14.4 °F 9.4 °F 1028.0 in SSW 16.7 mph 16.7 mph 72 % 0.0 in 0.0 W/m2 CLR
04:40 14.4 °F 9.4 °F 1028.0 in SSW 20.9 mph 20.9 mph 72 % 0.0 in 0.0 W/m2 CLR
04:45 14.4 °F 9.2 °F 1027.7 in SSW 22.2 mph 22.2 mph 71 % 0.0 in 0.0 W/m2 CLR
04:50 14.4 °F 9.4 °F 1027.7 in SSW 18.5 mph 18.5 mph 72 % 0.0 in 0.0 W/m2 CLR
04:55 14.4 °F 9.4 °F 1027.7 in SSW 24.1 mph 24.1 mph 72 % 0.0 in 0.0 W/m2 CLR
05:00 14.4 °F 9.4 °F 1028.0 in SSW 18.5 mph 18.5 mph 72 % 0.0 in 0.0 W/m2 CLR
05:05 13.9 °F 8.9 °F 1028.0 in SSW 20.4 mph 20.4 mph 72 % 0.0 in 0.0 W/m2 CLR
05:10 13.9 °F 8.9 °F 1027.7 in South 24.1 mph 24.1 mph 72 % 0.0 in 0.0 W/m2 CLR
05:15 13.9 °F 8.9 °F 1028.0 in SW 27.8 mph 27.8 mph 72 % 0.0 in 0.0 W/m2 CLR
05:20 13.9 °F 8.9 °F 1028.0 in South 20.4 mph 20.4 mph 72 % 0.0 in 0.0 W/m2 CLR
05:21 13.9 °F 8.9 °F 1028.0 in SSW 22.5 mph 22.5 mph 72 % 0.0 in 0.0 W/m2 CLR
05:22 13.9 °F 8.9 °F 1028.0 in SSW 20.4 mph 20.4 mph 72 % 0.0 in 0.0 W/m2 CLR
05:23 13.9 °F 8.9 °F 1028.0 in SW 22.5 mph 22.5 mph 72 % 0.0 in 0.0 W/m2 CLR
05:27 13.9 °F 8.9 °F 1028.0 in South 27.8 mph 27.8 mph 72 % 0.0 in 0.0 W/m2 CLR
05:32 13.9 °F 8.9 °F 1028.0 in SSW 29.6 mph 29.6 mph 72 % 0.0 in 0.0 W/m2 CLR
05:37 13.9 °F 8.7 °F 1028.0 in SSW 20.4 mph 20.4 mph 71 % 0.0 in 0.0 W/m2 CLR
05:42 13.9 °F 8.9 °F 1028.0 in South 18.5 mph 18.5 mph 72 % 0.0 in 0.0 W/m2 CLR
05:47 13.9 °F 8.9 °F 1028.0 in SSW 16.7 mph 16.7 mph 72 % 0.0 in 0.0 W/m2 CLR
05:52 13.9 °F 8.9 °F 1028.0 in SSW 14.8 mph 14.8 mph 72 % 0.0 in 0.0 W/m2 CLR
05:57 13.9 °F 8.9 °F 1028.0 in SSW 18.5 mph 18.5 mph 72 % 0.0 in 0.0 W/m2 CLR
06:02 13.3 °F 8.6 °F 1028.0 in South 16.7 mph 16.7 mph 73 % 0.0 in 0.0 W/m2 CLR
06:08 13.3 °F 8.6 °F 1028.0 in South 18.5 mph 18.5 mph 73 % 0.0 in 0.0 W/m2 CLR
06:13 13.3 °F 8.6 °F 1028.0 in South 16.7 mph 16.7 mph 73 % 0.0 in 0.0 W/m2 CLR
06:18 12.8 °F 8.3 °F 1028.0 in SSW 16.7 mph 16.7 mph 74 % 0.0 in 0.0 W/m2 CLR
06:23 12.8 °F 8.3 °F 1028.0 in South 16.7 mph 16.7 mph 74 % 0.0 in 0.0 W/m2 CLR
06:28 12.8 °F 8.3 °F 1028.0 in South 9.3 mph 9.3 mph 74 % 0.0 in 0.0 W/m2 CLR
06:33 12.8 °F 8.3 °F 1028.0 in SSE 8.0 mph 10.3 mph 74 % 0.0 in 0.0 W/m2 CLR
06:38 12.8 °F 8.3 °F 1028.0 in SSE 7.4 mph 7.4 mph 74 % 0.0 in 0.0 W/m2 CLR
06:43 12.8 °F 8.4 °F 1028.0 in SSE 9.3 mph 9.3 mph 75 % 0.0 in 0.0 W/m2 CLR
06:48 12.8 °F 8.4 °F 1028.0 in SSE 9.3 mph 9.3 mph 75 % 0.0 in 0.0 W/m2 CLR
06:53 12.2 °F 8.1 °F 1028.0 in SSE 14.5 mph 14.5 mph 76 % 0.0 in 0.0 W/m2 CLR
06:58 11.7 °F 7.6 °F 1028.0 in South 16.7 mph 16.7 mph 76 % 0.0 in 0.0 W/m2 CLR
07:03 11.7 °F 7.6 °F 1028.0 in South 11.1 mph 11.1 mph 76 % 0.0 in 0.0 W/m2 CLR
07:08 11.7 °F 7.6 °F 1028.0 in South 14.8 mph 14.8 mph 76 % 0.0 in 0.0 W/m2 CLR
07:13 11.7 °F 7.6 °F 1028.0 in South 11.1 mph 11.1 mph 76 % 0.0 in 0.0 W/m2 CLR
07:18 11.7 °F 7.8 °F 1028.0 in South 9.7 mph 9.7 mph 77 % 0.0 in 0.0 W/m2 CLR
07:23 11.7 °F 7.6 °F 1028.0 in South 18.5 mph 18.5 mph 76 % 0.0 in 0.0 W/m2 CLR
07:28 11.7 °F 7.6 °F 1028.0 in South 9.7 mph 9.7 mph 76 % 0.0 in 0.0 W/m2 CLR
07:33 11.7 °F 7.6 °F 1028.0 in South 9.3 mph 9.3 mph 76 % 0.0 in 0.0 W/m2 CLR
07:38 11.7 °F 7.6 °F 1028.0 in SSE 18.5 mph 18.5 mph 76 % 0.0 in 0.0 W/m2 CLR
07:43 11.7 °F 7.6 °F 1028.0 in SSE 11.1 mph 11.1 mph 76 % 0.0 in 0.0 W/m2 CLR
07:48 11.7 °F 7.8 °F 1028.0 in South 12.9 mph 12.9 mph 77 % 0.0 in 0.0 W/m2 CLR
07:53 12.2 °F 8.3 °F 1028.0 in SSE 11.3 mph 11.3 mph 77 % 0.0 in 0.0 W/m2 CLR
07:58 12.8 °F 8.8 °F 1028.0 in SE 11.1 mph 11.1 mph 77 % 0.0 in 0.0 W/m2 CLR
08:03 12.8 °F 8.8 °F 1028.0 in SSE 9.3 mph 9.3 mph 77 % 0.0 in 0.0 W/m2 CLR
08:08 12.8 °F 8.8 °F 1028.0 in SSE 14.8 mph 14.8 mph 77 % 0.0 in 0.0 W/m2 CLR
08:13 12.8 °F 8.8 °F 1028.0 in SSE 13.0 mph 13.0 mph 77 % 0.0 in 0.0 W/m2 CLR
08:18 12.8 °F 8.8 °F 1028.0 in South 11.1 mph 11.1 mph 77 % 0.0 in 0.0 W/m2 OVC
08:23 12.8 °F 8.8 °F 1028.0 in South 14.8 mph 14.8 mph 77 % 0.0 in 0.0 W/m2 OVC
08:28 12.8 °F 8.8 °F 1028.0 in South 11.1 mph 11.1 mph 77 % 0.0 in 5.0 W/m2 OVC
08:33 12.2 °F 8.3 °F 1028.0 in South 18.5 mph 18.5 mph 77 % 0.0 in 9.0 W/m2 BKN
08:38 12.2 °F 8.3 °F 1028.0 in SSE 20.4 mph 20.4 mph 77 % 0.0 in 9.0 W/m2 BKN
08:43 12.2 °F 8.3 °F 1028.0 in SSE 11.3 mph 11.3 mph 77 % 0.0 in 14.0 W/m2 BKN
08:48 12.8 °F 8.8 °F 1028.3 in SSE 9.3 mph 9.3 mph 77 % 0.0 in 18.0 W/m2 BKN
08:53 12.8 °F 8.8 °F 1028.3 in South 9.7 mph 9.7 mph 77 % 0.0 in 21.0 W/m2 BKN
08:58 12.8 °F 8.8 °F 1028.3 in South 18.5 mph 18.5 mph 77 % 0.0 in 28.0 W/m2 BKN
09:03 12.8 °F 8.7 °F 1028.3 in South 18.5 mph 18.5 mph 76 % 0.0 in 39.0 W/m2 BKN
09:08 12.8 °F 8.7 °F 1028.7 in South 13.0 mph 13.0 mph 76 % 0.0 in 46.0 W/m2 SCT
09:13 13.3 °F 9.0 °F 1028.7 in South 9.3 mph 9.3 mph 75 % 0.0 in 62.0 W/m2 SCT
09:18 13.3 °F 9.0 °F 1028.7 in South 20.4 mph 20.4 mph 75 % 0.0 in 72.0 W/m2 FEW
09:19 13.3 °F 8.8 °F 1028.7 in SSW 20.4 mph 20.4 mph 74 % 0.0 in 72.0 W/m2 FEW
09:24 13.3 °F 8.8 °F 1028.7 in South 22.5 mph 22.5 mph 74 % 0.0 in 90.0 W/m2 CLR
09:29 13.3 °F 8.6 °F 1028.7 in South 22.2 mph 22.2 mph 73 % 0.0 in 104.0 W/m2 CLR
09:34 13.9 °F 9.1 °F 1028.7 in South 20.4 mph 20.4 mph 73 % 0.0 in 98.0 W/m2 CLR
09:39 13.9 °F 8.9 °F 1028.7 in South 27.8 mph 27.8 mph 72 % 0.0 in 127.0 W/m2 CLR
09:44 13.9 °F 8.9 °F 1029.0 in SSW 27.8 mph 27.8 mph 72 % 0.0 in 137.0 W/m2 CLR
09:49 14.4 °F 9.2 °F 1029.0 in SSE 18.5 mph 18.5 mph 71 % 0.0 in 137.0 W/m2 CLR
09:54 14.4 °F 9.2 °F 1029.0 in SSW 5.6 mph 5.6 mph 71 % 0.0 in 105.0 W/m2 CLR
09:59 14.4 °F 9.1 °F 1029.0 in South 13.0 mph 13.0 mph 70 % 0.0 in 142.0 W/m2 CLR
10:04 15.0 °F 9.6 °F 1028.7 in SSW 22.2 mph 22.2 mph 70 % 0.0 in 216.0 W/m2 CLR
10:09 15.0 °F 9.6 °F 1028.7 in South 6.4 mph 6.4 mph 70 % 0.0 in 236.0 W/m2 CLR
10:14 15.0 °F 9.3 °F 1028.7 in SSW 24.1 mph 24.1 mph 69 % 0.0 in 251.0 W/m2 CLR
10:19 15.0 °F 9.1 °F 1028.7 in South 20.9 mph 20.9 mph 68 % 0.0 in 265.0 W/m2 CLR
10:24 15.6 °F 9.7 °F 1028.7 in SW 18.5 mph 18.5 mph 68 % 0.0 in 279.0 W/m2 CLR
10:29 15.6 °F 9.7 °F 1028.7 in South 14.8 mph 14.8 mph 68 % 0.0 in 295.0 W/m2 CLR
10:34 15.6 °F 9.7 °F 1029.0 in South 18.5 mph 18.5 mph 68 % 0.0 in 299.0 W/m2 CLR
10:39 15.6 °F 9.4 °F 1028.7 in SSW 22.2 mph 22.2 mph 67 % 0.0 in 309.0 W/m2 CLR
10:44 15.6 °F 9.4 °F 1028.7 in South 25.9 mph 25.9 mph 67 % 0.0 in 332.0 W/m2 CLR
10:49 16.1 °F 10.0 °F 1028.7 in South 22.2 mph 22.2 mph 67 % 0.0 in 339.0 W/m2 CLR
10:54 16.1 °F 9.8 °F 1028.7 in SW 24.1 mph 24.1 mph 66 % 0.0 in 339.0 W/m2 CLR
10:59 16.1 °F 9.8 °F 1028.7 in SSW 31.5 mph 31.5 mph 66 % 0.0 in 346.0 W/m2 CLR
11:04 16.1 °F 9.5 °F 1028.7 in SSW 20.4 mph 20.4 mph 65 % 0.0 in 338.0 W/m2 CLR
11:09 16.1 °F 9.8 °F 1028.7 in SW 24.1 mph 24.1 mph 66 % 0.0 in 373.0 W/m2 CLR
11:14 16.1 °F 9.5 °F 1028.7 in SW 20.4 mph 20.4 mph 65 % 0.0 in 415.0 W/m2 CLR
11:19 16.7 °F 10.3 °F 1028.7 in SSW 32.2 mph 32.2 mph 66 % 0.0 in 427.0 W/m2 CLR
11:24 17.2 °F 10.6 °F 1028.7 in SW 20.4 mph 20.4 mph 65 % 0.0 in 431.0 W/m2 CLR
11:29 17.2 °F 10.3 °F 1028.7 in WSW 32.2 mph 32.2 mph 64 % 0.0 in 450.0 W/m2 CLR
11:34 17.2 °F 10.3 °F 1028.3 in SW 20.4 mph 20.4 mph 64 % 0.0 in 441.0 W/m2 CLR
11:39 17.2 °F 10.1 °F 1028.3 in SW 29.0 mph 29.0 mph 63 % 0.0 in 439.0 W/m2 CLR
11:44 17.2 °F 10.3 °F 1028.3 in SSW 24.1 mph 24.1 mph 64 % 0.0 in 443.0 W/m2 CLR
11:49 17.8 °F 10.4 °F 1028.3 in SW 20.4 mph 20.4 mph 62 % 0.0 in 462.0 W/m2 CLR
11:54 17.2 °F 9.9 °F 1028.3 in SW 25.9 mph 25.9 mph 62 % 0.0 in 429.0 W/m2 CLR
11:59 17.2 °F 9.9 °F 1028.3 in SSW 24.1 mph 24.1 mph 62 % 0.0 in 452.0 W/m2 CLR
12:04 17.8 °F 10.2 °F 1028.3 in SSW 22.2 mph 22.2 mph 61 % 0.0 in 443.0 W/m2 CLR
12:06 17.8 °F 10.2 °F 1028.3 in SSW 22.2 mph 22.2 mph 61 % 0.0 in 469.0 W/m2 CLR
12:11 17.8 °F 10.2 °F 1028.0 in SW 19.3 mph 19.3 mph 61 % 0.0 in 454.0 W/m2 CLR
12:16 17.8 °F 9.9 °F 1028.3 in WSW 16.1 mph 16.1 mph 60 % 0.0 in 353.0 W/m2 CLR
12:21 17.8 °F 9.9 °F 1028.0 in SSW 18.5 mph 18.5 mph 60 % 0.0 in 452.0 W/m2 CLR
12:26 18.3 °F 10.2 °F 1028.3 in West 20.4 mph 20.4 mph 59 % 0.0 in 499.0 W/m2 CLR
12:31 18.3 °F 9.9 °F 1028.0 in WSW 24.1 mph 24.1 mph 58 % 0.0 in 534.0 W/m2 CLR
12:36 18.3 °F 9.9 °F 1028.0 in SW 27.8 mph 27.8 mph 58 % 0.0 in 536.0 W/m2 CLR
12:41 18.3 °F 9.7 °F 1028.0 in South 27.8 mph 27.8 mph 57 % 0.0 in 541.0 W/m2 CLR
12:46 18.9 °F 10.4 °F 1028.0 in SW 24.1 mph 24.1 mph 58 % 0.0 in 543.0 W/m2 CLR
12:51 18.9 °F 10.2 °F 1028.0 in SW 22.5 mph 22.5 mph 57 % 0.0 in 547.0 W/m2 CLR
12:56 18.9 °F 10.2 °F 1027.7 in WSW 24.1 mph 24.1 mph 57 % 0.0 in 548.0 W/m2 CLR
13:01 18.9 °F 9.9 °F 1027.7 in SSW 22.2 mph 22.2 mph 56 % 0.0 in 555.0 W/m2 CLR
13:06 18.9 °F 10.2 °F 1027.7 in South 22.5 mph 22.5 mph 57 % 0.0 in 557.0 W/m2 CLR
13:11 18.9 °F 9.9 °F 1027.7 in SW 13.0 mph 13.0 mph 56 % 0.0 in 561.0 W/m2 CLR
13:16 19.4 °F 10.4 °F 1027.7 in SSW 22.2 mph 22.2 mph 56 % 0.0 in 563.0 W/m2 CLR
13:21 19.4 °F 10.2 °F 1027.3 in SSW 16.7 mph 16.7 mph 55 % 0.0 in 568.0 W/m2 CLR
13:27 20.0 °F 10.7 °F 1027.3 in SSW 22.2 mph 22.2 mph 55 % 0.0 in 568.0 W/m2 CLR
13:31 20.0 °F 10.7 °F 1027.3 in WSW 24.1 mph 24.1 mph 55 % 0.0 in 570.0 W/m2 CLR
13:36 20.0 °F 10.4 °F 1027.3 in SSW 20.4 mph 20.4 mph 54 % 0.0 in 571.0 W/m2 CLR
13:41 20.0 °F 10.1 °F 1027.3 in South 24.1 mph 24.1 mph 53 % 0.0 in 568.0 W/m2 CLR
13:42 20.0 °F 10.1 °F 1027.3 in South 24.1 mph 24.1 mph 53 % 0.0 in 568.0 W/m2 CLR
13:47 20.0 °F 10.4 °F 1027.0 in SSW 18.5 mph 18.5 mph 54 % 0.0 in 571.0 W/m2 CLR
13:52 20.0 °F 10.1 °F 1027.0 in SSW 20.4 mph 20.4 mph 53 % 0.0 in 570.0 W/m2 CLR
13:57 20.0 °F 10.1 °F 1027.0 in SW 18.5 mph 18.5 mph 53 % 0.0 in 570.0 W/m2 CLR
14:02 20.6 °F 10.7 °F 1027.0 in WSW 18.5 mph 18.5 mph 53 % 0.0 in 570.0 W/m2 CLR
14:07 20.6 °F 10.7 °F 1027.0 in WSW 27.8 mph 27.8 mph 53 % 0.0 in 566.0 W/m2 CLR
14:12 20.6 °F 10.7 °F 1026.6 in WSW 27.8 mph 27.8 mph 53 % 0.0 in 564.0 W/m2 CLR
14:22 20.6 °F 10.7 °F 1026.6 in SW 22.2 mph 22.2 mph 53 % 0.0 in 557.0 W/m2 CLR
14:27 20.0 °F 10.1 °F 1026.6 in SW 20.4 mph 20.4 mph 53 % 0.0 in 559.0 W/m2 CLR
14:32 20.6 °F 10.7 °F 1026.6 in WSW 14.8 mph 14.8 mph 53 % 0.0 in 550.0 W/m2 CLR
14:37 21.1 °F 10.9 °F 1026.3 in SSW 20.4 mph 20.4 mph 52 % 0.0 in 550.0 W/m2 CLR
14:42 20.6 °F 10.3 °F 1026.3 in SW 22.2 mph 22.2 mph 52 % 0.0 in 543.0 W/m2 CLR
14:47 21.1 °F 10.9 °F 1026.3 in SW 24.1 mph 24.1 mph 52 % 0.0 in 538.0 W/m2 CLR
14:52 20.6 °F 10.3 °F 1026.3 in SW 16.7 mph 16.7 mph 52 % 0.0 in 533.0 W/m2 CLR
14:57 20.6 °F 10.1 °F 1026.3 in SW 25.9 mph 25.9 mph 51 % 0.0 in 529.0 W/m2 CLR
15:02 21.1 °F 10.3 °F 1026.0 in SSW 18.5 mph 18.5 mph 50 % 0.0 in 522.0 W/m2 CLR
15:07 21.1 °F 10.3 °F 1026.0 in SW 27.8 mph 27.8 mph 50 % 0.0 in 519.0 W/m2 CLR
15:12 21.1 °F 10.0 °F 1026.0 in South 20.4 mph 20.4 mph 49 % 0.0 in 512.0 W/m2 CLR
15:17 21.1 °F 10.3 °F 1026.0 in SW 16.7 mph 16.7 mph 50 % 0.0 in 503.0 W/m2 CLR
15:22 21.1 °F 10.0 °F 1026.0 in SW 24.1 mph 24.1 mph 49 % 0.0 in 494.0 W/m2 CLR
15:27 21.1 °F 10.3 °F 1026.0 in SW 20.9 mph 20.9 mph 50 % 0.0 in 489.0 W/m2 CLR
15:32 20.6 °F 9.8 °F 1026.0 in SW 16.7 mph 16.7 mph 50 % 0.0 in 480.0 W/m2 CLR
15:37 21.1 °F 10.3 °F 1025.6 in SW 14.8 mph 14.8 mph 50 % 0.0 in 471.0 W/m2 CLR
15:42 21.1 °F 10.0 °F 1025.6 in SW 22.2 mph 22.2 mph 49 % 0.0 in 462.0 W/m2 CLR
15:47 21.1 °F 10.0 °F 1025.6 in South 5.6 mph 5.6 mph 49 % 0.0 in 455.0 W/m2 CLR
15:52 21.7 °F 10.5 °F 1025.6 in WSW 24.1 mph 24.1 mph 49 % 0.0 in 446.0 W/m2 CLR
15:57 21.7 °F 10.2 °F 1025.6 in SW 9.3 mph 9.3 mph 48 % 0.0 in 434.0 W/m2 CLR
16:02 21.1 °F 9.7 °F 1025.6 in SSW 22.2 mph 22.2 mph 48 % 0.0 in 424.0 W/m2 CLR
16:07 21.1 °F 9.7 °F 1025.3 in South 14.8 mph 14.8 mph 48 % 0.0 in 413.0 W/m2 CLR
16:12 21.1 °F 9.3 °F 1025.3 in WSW 18.5 mph 18.5 mph 47 % 0.0 in 403.0 W/m2 CLR
16:17 21.1 °F 9.3 °F 1025.3 in SSW 20.4 mph 20.4 mph 47 % 0.0 in 392.0 W/m2 CLR
16:22 21.7 °F 9.8 °F 1025.3 in SSW 20.4 mph 20.4 mph 47 % 0.0 in 381.0 W/m2 CLR
16:27 21.7 °F 9.8 °F 1025.3 in SSW 20.4 mph 20.4 mph 47 % 0.0 in 369.0 W/m2 CLR
16:32 21.1 °F 9.1 °F 1025.3 in WSW 18.5 mph 18.5 mph 46 % 0.0 in 357.0 W/m2 CLR
16:37 21.7 °F 9.8 °F 1025.3 in SSW 18.5 mph 18.5 mph 47 % 0.0 in 348.0 W/m2 CLR
16:42 21.7 °F 9.6 °F 1025.3 in SW 20.4 mph 20.4 mph 46 % 0.0 in 334.0 W/m2 CLR
16:47 21.1 °F 9.1 °F 1025.3 in SW 18.5 mph 18.5 mph 46 % 0.0 in 322.0 W/m2 CLR
16:53 21.1 °F 9.1 °F 1025.3 in SSW 18.5 mph 18.5 mph 46 % 0.0 in 308.0 W/m2 CLR
16:58 21.1 °F 9.1 °F 1025.3 in SSW 16.7 mph 16.7 mph 46 % 0.0 in 294.0 W/m2 CLR
17:03 21.1 °F 9.1 °F 1025.3 in SW 18.5 mph 18.5 mph 46 % 0.0 in 283.0 W/m2 CLR
17:08 21.1 °F 9.1 °F 1025.3 in WSW 17.7 mph 17.7 mph 46 % 0.0 in 269.0 W/m2 CLR
17:13 21.1 °F 9.1 °F 1024.9 in SW 19.3 mph 19.3 mph 46 % 0.0 in 253.0 W/m2 CLR
17:18 21.1 °F 9.1 °F 1024.9 in SSW 16.7 mph 16.7 mph 46 % 0.0 in 239.0 W/m2 CLR
17:23 20.6 °F 8.6 °F 1024.9 in West 14.8 mph 14.8 mph 46 % 0.0 in 223.0 W/m2 CLR
17:28 20.6 °F 8.6 °F 1024.9 in SW 22.5 mph 22.5 mph 46 % 0.0 in 207.0 W/m2 CLR
17:33 20.6 °F 8.6 °F 1025.3 in SW 18.5 mph 18.5 mph 46 % 0.0 in 190.0 W/m2 CLR
17:38 20.6 °F 8.6 °F 1025.3 in SW 24.1 mph 24.1 mph 46 % 0.0 in 174.0 W/m2 CLR
17:43 20.6 °F 8.6 °F 1025.3 in SSW 16.7 mph 16.7 mph 46 % 0.0 in 160.0 W/m2 CLR
17:48 20.0 °F 8.3 °F 1025.3 in SSW 18.5 mph 18.5 mph 47 % 0.0 in 141.0 W/m2 CLR
17:53 20.0 °F 8.3 °F 1025.3 in SSW 18.5 mph 18.5 mph 47 % 0.0 in 123.0 W/m2 CLR
17:58 20.0 °F 8.3 °F 1025.3 in SW 20.4 mph 20.4 mph 47 % 0.0 in 109.0 W/m2 CLR
18:03 19.4 °F 7.8 °F 1025.3 in SW 18.5 mph 18.5 mph 47 % 0.0 in 95.0 W/m2 CLR
18:08 19.4 °F 7.8 °F 1025.3 in WSW 20.4 mph 20.4 mph 47 % 0.0 in 79.0 W/m2 FEW
18:13 19.4 °F 7.8 °F 1025.3 in SW 18.5 mph 18.5 mph 47 % 0.0 in 65.0 W/m2 FEW
18:18 19.4 °F 8.2 °F 1025.6 in SW 17.7 mph 17.7 mph 48 % 0.0 in 53.0 W/m2 SCT
18:23 19.4 °F 8.2 °F 1025.3 in SW 18.5 mph 18.5 mph 48 % 0.0 in 44.0 W/m2 SCT
18:28 18.9 °F 7.6 °F 1025.3 in WSW 14.5 mph 14.5 mph 48 % 0.0 in 33.0 W/m2 BKN
18:33 18.9 °F 7.9 °F 1025.6 in SW 20.4 mph 20.4 mph 49 % 0.0 in 25.0 W/m2 BKN
18:38 18.3 °F 7.4 °F 1025.6 in WSW 18.5 mph 18.5 mph 49 % 0.0 in 18.0 W/m2 BKN
18:43 18.3 °F 7.7 °F 1025.6 in SW 20.4 mph 20.4 mph 50 % 0.0 in 14.0 W/m2 BKN
18:48 18.3 °F 7.7 °F 1025.6 in WSW 14.8 mph 14.8 mph 50 % 0.0 in 12.0 W/m2 BKN
18:53 18.3 °F 7.7 °F 1025.6 in WSW 18.5 mph 18.5 mph 50 % 0.0 in 9.0 W/m2 BKN
18:58 18.3 °F 8.0 °F 1025.6 in SW 5.6 mph 5.6 mph 51 % 0.0 in 7.0 W/m2 BKN
19:03 17.8 °F 7.5 °F 1026.0 in Calm     51 % 0.0 in 0.0 W/m2 OVC
19:08 17.2 °F 7.0 °F 1026.0 in SSW 11.1 mph 11.1 mph 51 % 0.0 in 0.0 W/m2 OVC
19:13 16.7 °F 6.5 °F 1026.0 in SW 18.5 mph 18.5 mph 51 % 0.0 in 0.0 W/m2 CLR
19:18 16.7 °F 6.8 °F 1026.0 in SW 13.0 mph 13.0 mph 52 % 0.0 in 0.0 W/m2 CLR
19:23 16.1 °F 6.2 °F 1026.0 in SW 16.1 mph 16.1 mph 52 % 0.0 in 0.0 W/m2 CLR
19:28 16.1 °F 6.2 °F 1026.3 in SSW 16.7 mph 16.7 mph 52 % 0.0 in 0.0 W/m2 CLR
19:33 16.1 °F 6.5 °F 1026.3 in SW 18.5 mph 18.5 mph 53 % 0.0 in 0.0 W/m2 CLR
19:38 16.1 °F 6.5 °F 1026.3 in SW 14.8 mph 14.8 mph 53 % 0.0 in 0.0 W/m2 CLR
19:43 16.1 °F 6.5 °F 1026.3 in SW 18.5 mph 18.5 mph 53 % 0.0 in 0.0 W/m2 CLR
19:48 16.1 °F 6.8 °F 1026.3 in SSW 25.9 mph 25.9 mph 54 % 0.0 in 0.0 W/m2 CLR
19:53 16.1 °F 6.8 °F 1026.6 in SW 29.6 mph 29.6 mph 54 % 0.0 in 0.0 W/m2 CLR
19:58 16.1 °F 6.8 °F 1026.6 in SW 19.3 mph 19.3 mph 54 % 0.0 in 0.0 W/m2 CLR
20:03 16.1 °F 7.1 °F 1026.6 in WSW 19.3 mph 19.3 mph 55 % 0.0 in 0.0 W/m2 CLR
20:08 16.1 °F 7.1 °F 1026.6 in SW 25.9 mph 25.9 mph 55 % 0.0 in 0.0 W/m2 CLR
20:13 15.6 °F 6.8 °F 1026.6 in SSW 16.7 mph 16.7 mph 56 % 0.0 in 0.0 W/m2 CLR
20:18 15.6 °F 6.8 °F 1026.6 in SSW 18.5 mph 18.5 mph 56 % 0.0 in 0.0 W/m2 CLR
20:23 15.6 °F 7.1 °F 1026.6 in SSW 18.5 mph 18.5 mph 57 % 0.0 in 0.0 W/m2 CLR
20:28 15.6 °F 7.1 °F 1026.6 in SSW 13.0 mph 13.0 mph 57 % 0.0 in 0.0 W/m2 CLR
20:33 15.0 °F 6.8 °F 1026.6 in SSW 19.3 mph 19.3 mph 58 % 0.0 in 0.0 W/m2 CLR
20:38 15.0 °F 6.8 °F 1026.6 in SW 20.4 mph 20.4 mph 58 % 0.0 in 0.0 W/m2 CLR
20:43 15.0 °F 6.8 °F 1026.6 in SW 14.8 mph 14.8 mph 58 % 0.0 in 0.0 W/m2 CLR
20:48 15.0 °F 7.1 °F 1026.6 in SSW 14.8 mph 14.8 mph 59 % 0.0 in 0.0 W/m2 CLR
20:53 15.0 °F 7.1 °F 1026.6 in South 18.5 mph 18.5 mph 59 % 0.0 in 0.0 W/m2 CLR
20:58 15.0 °F 7.1 °F 1026.6 in WSW 18.5 mph 18.5 mph 59 % 0.0 in 0.0 W/m2 CLR
21:03 15.0 °F 7.1 °F 1026.6 in SSW 16.7 mph 16.7 mph 59 % 0.0 in 0.0 W/m2 CLR
21:08 15.0 °F 7.1 °F 1026.6 in SSW 19.3 mph 19.3 mph 59 % 0.0 in 0.0 W/m2 CLR
21:13 15.0 °F 7.1 °F 1026.6 in SSW 18.5 mph 18.5 mph 59 % 0.0 in 0.0 W/m2 CLR
21:18 15.0 °F 7.1 °F 1026.6 in SSW 11.1 mph 11.1 mph 59 % 0.0 in 0.0 W/m2 CLR
21:23 14.4 °F 6.5 °F 1026.6 in SSW 18.5 mph 18.5 mph 59 % 0.0 in 0.0 W/m2 CLR
21:28 13.9 °F 6.0 °F 1026.6 in SSW 13.0 mph 13.0 mph 59 % 0.0 in 0.0 W/m2 CLR
21:33 13.3 °F 5.7 °F 1026.6 in SSW 18.5 mph 18.5 mph 60 % 0.0 in 0.0 W/m2 CLR
21:38 12.8 °F 5.2 °F 1026.6 in SW 16.7 mph 16.7 mph 60 % 0.0 in 0.0 W/m2 CLR
21:44 12.8 °F 5.2 °F 1026.6 in SW 16.1 mph 16.1 mph 60 % 0.0 in 0.0 W/m2 CLR
21:49 12.2 °F 4.9 °F 1026.6 in SSW 14.8 mph 14.8 mph 61 % 0.0 in 0.0 W/m2 CLR
21:54 12.8 °F 5.4 °F 1026.6 in SW 16.7 mph 16.7 mph 61 % 0.0 in 0.0 W/m2 CLR
21:59 12.8 °F 5.4 °F 1026.6 in SSW 20.4 mph 20.4 mph 61 % 0.0 in 0.0 W/m2 CLR
22:04 13.3 °F 5.9 °F 1026.6 in SSW 18.5 mph 18.5 mph 61 % 0.0 in 0.0 W/m2 CLR
22:09 13.9 °F 6.5 °F 1026.6 in SW 18.5 mph 18.5 mph 61 % 0.0 in 0.0 W/m2 CLR
22:14 13.9 °F 6.5 °F 1026.6 in SSW 16.7 mph 16.7 mph 61 % 0.0 in 0.0 W/m2 CLR
22:19 13.9 °F 6.7 °F 1027.0 in South 18.5 mph 18.5 mph 62 % 0.0 in 0.0 W/m2 CLR
22:24 13.9 °F 6.7 °F 1027.0 in SSW 14.8 mph 14.8 mph 62 % 0.0 in 0.0 W/m2 CLR
22:29 13.9 °F 6.7 °F 1027.0 in SSW 18.5 mph 18.5 mph 62 % 0.0 in 0.0 W/m2 CLR
22:34 13.9 °F 6.7 °F 1027.0 in South 14.5 mph 14.5 mph 62 % 0.0 in 0.0 W/m2 CLR
22:39 13.9 °F 6.7 °F 1027.0 in SSW 18.5 mph 18.5 mph 62 % 0.0 in 0.0 W/m2 CLR
22:44 13.9 °F 6.7 °F 1027.0 in South 14.8 mph 14.8 mph 62 % 0.0 in 0.0 W/m2 CLR
22:49 13.3 °F 6.2 °F 1027.0 in SSW 13.0 mph 13.0 mph 62 % 0.0 in 0.0 W/m2 CLR
22:54 12.8 °F 5.9 °F 1026.6 in SSW 14.8 mph 14.8 mph 63 % 0.0 in 0.0 W/m2 CLR
22:59 12.8 °F 5.9 °F 1026.6 in SSW 16.1 mph 16.1 mph 63 % 0.0 in 0.0 W/m2 CLR
23:04 12.2 °F 5.4 °F 1027.0 in South 9.7 mph 9.7 mph 63 % 0.0 in 0.0 W/m2 CLR
23:09 12.2 °F 5.6 °F 1027.0 in South 5.6 mph 5.6 mph 64 % 0.0 in 0.0 W/m2 CLR
23:14 11.7 °F 5.1 °F 1026.6 in SSW 16.7 mph 16.7 mph 64 % 0.0 in 0.0 W/m2 CLR
23:19 11.7 °F 5.3 °F 1027.0 in SSW 16.7 mph 16.7 mph 65 % 0.0 in 0.0 W/m2 CLR
23:24 11.1 °F 4.8 °F 1027.0 in SSW 5.6 mph 5.6 mph 65 % 0.0 in 0.0 W/m2 CLR
23:29 11.1 °F 4.8 °F 1027.0 in SSW 18.5 mph 18.5 mph 65 % 0.0 in 0.0 W/m2 CLR
23:34 11.7 °F 5.3 °F 1027.0 in South 11.1 mph 11.1 mph 65 % 0.0 in 0.0 W/m2 CLR
23:39 11.7 °F 5.3 °F 1027.0 in Calm     65 % 0.0 in 0.0 W/m2 CLR
23:44 11.1 °F 4.8 °F 1027.0 in SSE 4.8 mph 4.8 mph 65 % 0.0 in 0.0 W/m2 CLR
23:49 11.1 °F 5.0 °F 1027.0 in Calm     66 % 0.0 in 0.0 W/m2 CLR
23:54 10.6 °F 4.7 °F 1027.0 in South 14.5 mph 14.5 mph 67 % 0.0 in 0.0 W/m2 CLR
23:59 10.0 °F 4.2 °F 1027.0 in SSW 18.5 mph 18.5 mph 67 % 0.0 in 0.0 W/m2 CLR
Lo Temps de Massalio
Compliments of Weather Underground - 1.25 mb